sensor_id;sensor_type;location;lat;lon;timestamp;P1;durP1;ratioP1;P2;durP2;ratioP2
77076;SDS011;66003;52.286;104.306;2023-03-11T00:00:22;4.53;;;4.13;;
77076;SDS011;66003;52.286;104.306;2023-03-11T00:02:50;4.47;;;4.25;;
77076;SDS011;66003;52.286;104.306;2023-03-11T00:05:22;5.45;;;4.93;;
77076;SDS011;66003;52.286;104.306;2023-03-11T00:07:51;4.47;;;2.65;;
77076;SDS011;66003;52.286;104.306;2023-03-11T00:10:21;3.90;;;2.88;;
77076;SDS011;66003;52.286;104.306;2023-03-11T00:12:55;6.82;;;6.32;;
77076;SDS011;66003;52.286;104.306;2023-03-11T00:15:21;9.93;;;5.50;;
77076;SDS011;66003;52.286;104.306;2023-03-11T00:17:47;4.53;;;2.17;;
77076;SDS011;66003;52.286;104.306;2023-03-11T00:20:22;9.02;;;5.10;;
77076;SDS011;66003;52.286;104.306;2023-03-11T00:22:56;3.95;;;2.55;;
77076;SDS011;66003;52.286;104.306;2023-03-11T00:25:24;3.08;;;2.85;;
77076;SDS011;66003;52.286;104.306;2023-03-11T00:27:51;4.75;;;4.32;;
77076;SDS011;66003;52.286;104.306;2023-03-11T00:30:18;4.15;;;3.88;;
77076;SDS011;66003;52.286;104.306;2023-03-11T00:32:52;4.97;;;4.10;;
77076;SDS011;66003;52.286;104.306;2023-03-11T00:35:20;10.98;;;8.63;;
77076;SDS011;66003;52.286;104.306;2023-03-11T00:37:51;9.10;;;2.67;;
77076;SDS011;66003;52.286;104.306;2023-03-11T00:40:20;8.68;;;4.45;;
77076;SDS011;66003;52.286;104.306;2023-03-11T00:42:47;3.38;;;3.10;;
77076;SDS011;66003;52.286;104.306;2023-03-11T00:45:13;13.70;;;5.82;;
77076;SDS011;66003;52.286;104.306;2023-03-11T00:47:40;5.78;;;5.10;;
77076;SDS011;66003;52.286;104.306;2023-03-11T00:50:07;13.18;;;6.15;;
77076;SDS011;66003;52.286;104.306;2023-03-11T00:52:36;13.00;;;6.25;;
77076;SDS011;66003;52.286;104.306;2023-03-11T00:55:03;12.93;;;7.50;;
77076;SDS011;66003;52.286;104.306;2023-03-11T00:57:30;6.72;;;4.63;;
77076;SDS011;66003;52.286;104.306;2023-03-11T00:59:57;7.00;;;4.50;;
77076;SDS011;66003;52.286;104.306;2023-03-11T01:02:24;9.95;;;6.30;;
77076;SDS011;66003;52.286;104.306;2023-03-11T01:04:54;11.23;;;7.47;;
77076;SDS011;66003;52.286;104.306;2023-03-11T01:07:21;22.88;;;11.32;;
77076;SDS011;66003;52.286;104.306;2023-03-11T01:09:47;18.20;;;10.57;;
77076;SDS011;66003;52.286;104.306;2023-03-11T01:12:13;20.13;;;7.53;;
77076;SDS011;66003;52.286;104.306;2023-03-11T01:14:39;25.70;;;10.75;;
77076;SDS011;66003;52.286;104.306;2023-03-11T01:17:05;19.77;;;9.70;;
77076;SDS011;66003;52.286;104.306;2023-03-11T01:19:31;12.50;;;5.93;;
77076;SDS011;66003;52.286;104.306;2023-03-11T01:21:57;10.98;;;7.25;;
77076;SDS011;66003;52.286;104.306;2023-03-11T01:24:24;15.23;;;8.35;;
77076;SDS011;66003;52.286;104.306;2023-03-11T01:26:50;17.17;;;9.35;;
77076;SDS011;66003;52.286;104.306;2023-03-11T01:29:16;19.30;;;9.23;;
77076;SDS011;66003;52.286;104.306;2023-03-11T01:31:42;17.67;;;10.23;;
77076;SDS011;66003;52.286;104.306;2023-03-11T01:34:08;21.98;;;11.15;;
77076;SDS011;66003;52.286;104.306;2023-03-11T01:36:34;18.42;;;8.43;;
77076;SDS011;66003;52.286;104.306;2023-03-11T01:39:00;16.48;;;7.10;;
77076;SDS011;66003;52.286;104.306;2023-03-11T01:41:26;13.20;;;8.20;;
77076;SDS011;66003;52.286;104.306;2023-03-11T01:43:53;13.65;;;7.38;;
77076;SDS011;66003;52.286;104.306;2023-03-11T01:49:19;13.77;;;7.78;;
77076;SDS011;66003;52.286;104.306;2023-03-11T01:51:47;11.40;;;6.88;;
77076;SDS011;66003;52.286;104.306;2023-03-11T01:54:20;17.83;;;9.27;;
77076;SDS011;66003;52.286;104.306;2023-03-11T01:56:55;17.30;;;10.80;;
77076;SDS011;66003;52.286;104.306;2023-03-11T01:59:28;12.75;;;7.85;;
77076;SDS011;66003;52.286;104.306;2023-03-11T02:01:59;15.35;;;9.52;;
77076;SDS011;66003;52.286;104.306;2023-03-11T02:04:30;18.30;;;9.73;;
77076;SDS011;66003;52.286;104.306;2023-03-11T02:06:59;17.65;;;9.38;;
77076;SDS011;66003;52.286;104.306;2023-03-11T02:09:26;18.27;;;10.55;;
77076;SDS011;66003;52.286;104.306;2023-03-11T02:11:56;18.75;;;10.95;;
77076;SDS011;66003;52.286;104.306;2023-03-11T02:14:38;19.98;;;11.63;;
77076;SDS011;66003;52.286;104.306;2023-03-11T02:17:08;22.98;;;11.52;;
77076;SDS011;66003;52.286;104.306;2023-03-11T02:22:19;18.27;;;9.77;;
77076;SDS011;66003;52.286;104.306;2023-03-11T02:24:54;18.38;;;10.50;;
77076;SDS011;66003;52.286;104.306;2023-03-11T02:27:34;16.55;;;9.75;;
77076;SDS011;66003;52.286;104.306;2023-03-11T02:30:06;21.10;;;10.57;;
77076;SDS011;66003;52.286;104.306;2023-03-11T02:32:34;19.50;;;12.45;;
77076;SDS011;66003;52.286;104.306;2023-03-11T02:35:02;23.52;;;13.07;;
77076;SDS011;66003;52.286;104.306;2023-03-11T02:37:30;22.90;;;13.50;;
77076;SDS011;66003;52.286;104.306;2023-03-11T02:40:11;16.60;;;9.48;;
77076;SDS011;66003;52.286;104.306;2023-03-11T02:42:55;23.20;;;13.93;;
77076;SDS011;66003;52.286;104.306;2023-03-11T02:45:24;18.63;;;11.05;;
77076;SDS011;66003;52.286;104.306;2023-03-11T02:47:52;27.50;;;9.65;;
77076;SDS011;66003;52.286;104.306;2023-03-11T02:50:20;20.88;;;11.45;;
77076;SDS011;66003;52.286;104.306;2023-03-11T02:52:49;25.17;;;13.82;;
77076;SDS011;66003;52.286;104.306;2023-03-11T02:55:16;27.33;;;11.57;;
77076;SDS011;66003;52.286;104.306;2023-03-11T02:57:45;20.75;;;9.75;;
77076;SDS011;66003;52.286;104.306;2023-03-11T03:00:12;15.18;;;5.93;;
77076;SDS011;66003;52.286;104.306;2023-03-11T03:02:41;14.65;;;8.43;;
77076;SDS011;66003;52.286;104.306;2023-03-11T03:05:09;10.48;;;5.32;;
77076;SDS011;66003;52.286;104.306;2023-03-11T03:07:36;8.48;;;6.38;;
77076;SDS011;66003;52.286;104.306;2023-03-11T03:10:03;5.05;;;4.07;;
77076;SDS011;66003;52.286;104.306;2023-03-11T03:12:31;10.70;;;7.90;;
77076;SDS011;66003;52.286;104.306;2023-03-11T03:14:57;9.27;;;6.38;;
77076;SDS011;66003;52.286;104.306;2023-03-11T03:17:23;5.32;;;3.85;;
77076;SDS011;66003;52.286;104.306;2023-03-11T03:19:49;8.63;;;5.35;;
77076;SDS011;66003;52.286;104.306;2023-03-11T03:22:15;7.72;;;3.67;;
77076;SDS011;66003;52.286;104.306;2023-03-11T03:24:41;8.40;;;3.65;;
77076;SDS011;66003;52.286;104.306;2023-03-11T03:27:08;4.72;;;2.47;;
77076;SDS011;66003;52.286;104.306;2023-03-11T03:29:34;9.88;;;4.85;;
77076;SDS011;66003;52.286;104.306;2023-03-11T03:32:00;12.88;;;5.13;;
77076;SDS011;66003;52.286;104.306;2023-03-11T03:34:26;7.68;;;5.05;;
77076;SDS011;66003;52.286;104.306;2023-03-11T03:36:52;9.38;;;5.80;;
77076;SDS011;66003;52.286;104.306;2023-03-11T03:39:18;10.48;;;3.75;;
77076;SDS011;66003;52.286;104.306;2023-03-11T03:41:44;7.65;;;3.55;;
77076;SDS011;66003;52.286;104.306;2023-03-11T03:44:10;8.40;;;4.00;;
77076;SDS011;66003;52.286;104.306;2023-03-11T03:46:36;7.35;;;3.95;;
77076;SDS011;66003;52.286;104.306;2023-03-11T03:49:04;6.13;;;2.78;;
77076;SDS011;66003;52.286;104.306;2023-03-11T03:51:30;4.93;;;3.92;;
77076;SDS011;66003;52.286;104.306;2023-03-11T03:53:56;2.60;;;2.40;;
77076;SDS011;66003;52.286;104.306;2023-03-11T03:56:22;4.63;;;4.22;;
77076;SDS011;66003;52.286;104.306;2023-03-11T03:58:48;3.63;;;2.90;;
77076;SDS011;66003;52.286;104.306;2023-03-11T04:01:15;3.55;;;2.05;;
77076;SDS011;66003;52.286;104.306;2023-03-11T04:03:41;7.40;;;4.07;;
77076;SDS011;66003;52.286;104.306;2023-03-11T04:06:09;4.13;;;3.83;;
77076;SDS011;66003;52.286;104.306;2023-03-11T04:08:40;6.78;;;3.80;;
77076;SDS011;66003;52.286;104.306;2023-03-11T04:11:06;4.05;;;3.67;;
77076;SDS011;66003;52.286;104.306;2023-03-11T04:13:32;4.88;;;2.38;;
77076;SDS011;66003;52.286;104.306;2023-03-11T04:15:59;2.78;;;2.63;;
77076;SDS011;66003;52.286;104.306;2023-03-11T04:18:27;4.20;;;4.00;;
77076;SDS011;66003;52.286;104.306;2023-03-11T04:20:53;2.15;;;1.98;;
77076;SDS011;66003;52.286;104.306;2023-03-11T04:23:19;4.32;;;4.10;;
77076;SDS011;66003;52.286;104.306;2023-03-11T04:25:45;3.80;;;3.28;;
77076;SDS011;66003;52.286;104.306;2023-03-11T04:28:11;8.02;;;3.65;;
77076;SDS011;66003;52.286;104.306;2023-03-11T04:30:38;2.95;;;2.35;;
77076;SDS011;66003;52.286;104.306;2023-03-11T04:33:04;3.80;;;2.35;;
77076;SDS011;66003;52.286;104.306;2023-03-11T04:35:30;2.33;;;1.90;;
77076;SDS011;66003;52.286;104.306;2023-03-11T04:37:56;3.90;;;2.85;;
77076;SDS011;66003;52.286;104.306;2023-03-11T04:40:24;2.72;;;2.50;;
77076;SDS011;66003;52.286;104.306;2023-03-11T04:42:51;6.32;;;2.65;;
77076;SDS011;66003;52.286;104.306;2023-03-11T04:47:47;6.13;;;2.85;;
77076;SDS011;66003;52.286;104.306;2023-03-11T04:50:14;2.78;;;2.20;;
77076;SDS011;66003;52.286;104.306;2023-03-11T04:52:41;2.17;;;1.98;;
77076;SDS011;66003;52.286;104.306;2023-03-11T04:55:07;1.40;;;1.40;;
77076;SDS011;66003;52.286;104.306;2023-03-11T04:57:34;1.90;;;0.75;;
77076;SDS011;66003;52.286;104.306;2023-03-11T05:00:00;2.05;;;1.73;;
77076;SDS011;66003;52.286;104.306;2023-03-11T05:02:26;4.00;;;1.90;;
77076;SDS011;66003;52.286;104.306;2023-03-11T05:04:52;2.75;;;2.42;;
77076;SDS011;66003;52.286;104.306;2023-03-11T05:07:18;3.40;;;1.75;;
77076;SDS011;66003;52.286;104.306;2023-03-11T05:09:44;9.57;;;3.10;;
77076;SDS011;66003;52.286;104.306;2023-03-11T05:12:11;4.20;;;3.17;;
77076;SDS011;66003;52.286;104.306;2023-03-11T05:14:37;7.50;;;3.13;;
77076;SDS011;66003;52.286;104.306;2023-03-11T05:17:03;2.70;;;2.50;;
77076;SDS011;66003;52.286;104.306;2023-03-11T05:19:29;2.13;;;1.90;;
77076;SDS011;66003;52.286;104.306;2023-03-11T05:21:56;2.83;;;1.73;;
77076;SDS011;66003;52.286;104.306;2023-03-11T05:24:23;3.08;;;2.88;;
77076;SDS011;66003;52.286;104.306;2023-03-11T05:26:52;2.20;;;2.10;;
77076;SDS011;66003;52.286;104.306;2023-03-11T05:29:18;2.60;;;1.77;;
77076;SDS011;66003;52.286;104.306;2023-03-11T05:31:45;2.05;;;1.95;;
77076;SDS011;66003;52.286;104.306;2023-03-11T05:34:11;2.40;;;2.30;;
77076;SDS011;66003;52.286;104.306;2023-03-11T05:36:38;1.85;;;1.75;;
77076;SDS011;66003;52.286;104.306;2023-03-11T05:39:04;3.70;;;2.47;;
77076;SDS011;66003;52.286;104.306;2023-03-11T05:41:30;1.77;;;1.67;;
77076;SDS011;66003;52.286;104.306;2023-03-11T05:43:56;3.40;;;3.25;;
77076;SDS011;66003;52.286;104.306;2023-03-11T05:46:22;2.47;;;2.28;;
77076;SDS011;66003;52.286;104.306;2023-03-11T05:48:49;3.88;;;2.92;;
77076;SDS011;66003;52.286;104.306;2023-03-11T05:51:15;2.00;;;1.88;;
77076;SDS011;66003;52.286;104.306;2023-03-11T05:53:41;3.10;;;2.08;;
77076;SDS011;66003;52.286;104.306;2023-03-11T05:56:16;2.08;;;2.08;;
77076;SDS011;66003;52.286;104.306;2023-03-11T05:58:43;5.28;;;2.80;;
77076;SDS011;66003;52.286;104.306;2023-03-11T06:01:10;2.92;;;2.05;;
77076;SDS011;66003;52.286;104.306;2023-03-11T06:03:39;2.30;;;2.20;;
77076;SDS011;66003;52.286;104.306;2023-03-11T06:06:06;2.78;;;2.58;;
77076;SDS011;66003;52.286;104.306;2023-03-11T06:08:33;1.77;;;1.67;;
77076;SDS011;66003;52.286;104.306;2023-03-11T06:11:04;2.80;;;1.58;;
77076;SDS011;66003;52.286;104.306;2023-03-11T06:13:35;2.83;;;2.72;;
77076;SDS011;66003;52.286;104.306;2023-03-11T06:16:02;1.85;;;1.75;;
77076;SDS011;66003;52.286;104.306;2023-03-11T06:18:29;3.03;;;2.80;;
77076;SDS011;66003;52.286;104.306;2023-03-11T06:20:58;2.75;;;1.75;;
77076;SDS011;66003;52.286;104.306;2023-03-11T06:23:27;1.17;;;0.68;;
77076;SDS011;66003;52.286;104.306;2023-03-11T06:25:57;2.15;;;2.05;;
77076;SDS011;66003;52.286;104.306;2023-03-11T06:28:24;2.20;;;1.92;;
77076;SDS011;66003;52.286;104.306;2023-03-11T06:30:51;3.88;;;3.50;;
77076;SDS011;66003;52.286;104.306;2023-03-11T06:33:17;2.53;;;2.42;;
77076;SDS011;66003;52.286;104.306;2023-03-11T06:35:43;2.33;;;2.17;;
77076;SDS011;66003;52.286;104.306;2023-03-11T06:38:09;1.95;;;1.85;;
77076;SDS011;66003;52.286;104.306;2023-03-11T06:40:37;1.33;;;1.23;;
77076;SDS011;66003;52.286;104.306;2023-03-11T06:43:03;3.55;;;2.55;;
77076;SDS011;66003;52.286;104.306;2023-03-11T06:45:29;2.83;;;2.63;;
77076;SDS011;66003;52.286;104.306;2023-03-11T06:47:55;2.70;;;1.40;;
77076;SDS011;66003;52.286;104.306;2023-03-11T06:50:21;2.45;;;1.83;;
77076;SDS011;66003;52.286;104.306;2023-03-11T06:52:48;2.03;;;1.92;;
77076;SDS011;66003;52.286;104.306;2023-03-11T06:55:14;2.97;;;2.72;;
77076;SDS011;66003;52.286;104.306;2023-03-11T06:57:40;1.45;;;1.35;;
77076;SDS011;66003;52.286;104.306;2023-03-11T07:00:07;1.02;;;0.30;;
77076;SDS011;66003;52.286;104.306;2023-03-11T07:02:36;2.38;;;1.55;;
77076;SDS011;66003;52.286;104.306;2023-03-11T07:05:02;2.00;;;1.90;;
77076;SDS011;66003;52.286;104.306;2023-03-11T07:07:29;2.10;;;1.65;;
77076;SDS011;66003;52.286;104.306;2023-03-11T07:09:55;2.08;;;0.50;;
77076;SDS011;66003;52.286;104.306;2023-03-11T07:12:24;2.00;;;1.90;;
77076;SDS011;66003;52.286;104.306;2023-03-11T07:14:54;2.28;;;1.88;;
77076;SDS011;66003;52.286;104.306;2023-03-11T07:17:24;2.17;;;2.03;;
77076;SDS011;66003;52.286;104.306;2023-03-11T07:19:52;2.17;;;2.08;;
77076;SDS011;66003;52.286;104.306;2023-03-11T07:22:18;3.63;;;2.72;;
77076;SDS011;66003;52.286;104.306;2023-03-11T07:24:48;2.15;;;2.05;;
77076;SDS011;66003;52.286;104.306;2023-03-11T07:27:14;1.67;;;1.67;;
77076;SDS011;66003;52.286;104.306;2023-03-11T07:29:40;2.55;;;2.30;;
77076;SDS011;66003;52.286;104.306;2023-03-11T07:32:07;1.38;;;1.27;;
77076;SDS011;66003;52.286;104.306;2023-03-11T07:34:33;0.85;;;0.40;;
77076;SDS011;66003;52.286;104.306;2023-03-11T07:36:59;2.15;;;2.05;;
77076;SDS011;66003;52.286;104.306;2023-03-11T07:39:25;2.10;;;1.88;;
77076;SDS011;66003;52.286;104.306;2023-03-11T07:41:51;1.70;;;1.48;;
77076;SDS011;66003;52.286;104.306;2023-03-11T07:44:18;2.15;;;2.05;;
77076;SDS011;66003;52.286;104.306;2023-03-11T07:46:44;2.13;;;1.50;;
77076;SDS011;66003;52.286;104.306;2023-03-11T07:49:10;1.70;;;1.60;;
77076;SDS011;66003;52.286;104.306;2023-03-11T07:51:37;2.83;;;2.58;;
77076;SDS011;66003;52.286;104.306;2023-03-11T07:54:06;2.90;;;1.40;;
77076;SDS011;66003;52.286;104.306;2023-03-11T07:56:33;1.52;;;1.42;;
77076;SDS011;66003;52.286;104.306;2023-03-11T07:59:00;2.00;;;1.90;;
77076;SDS011;66003;52.286;104.306;2023-03-11T08:01:28;2.05;;;1.95;;
77076;SDS011;66003;52.286;104.306;2023-03-11T08:04:01;4.68;;;2.10;;
77076;SDS011;66003;52.286;104.306;2023-03-11T08:06:29;0.85;;;0.20;;
77076;SDS011;66003;52.286;104.306;2023-03-11T08:09:00;1.90;;;1.80;;
77076;SDS011;66003;52.286;104.306;2023-03-11T08:11:30;0.32;;;0.32;;
77076;SDS011;66003;52.286;104.306;2023-03-11T08:13:56;3.00;;;1.80;;
77076;SDS011;66003;52.286;104.306;2023-03-11T08:16:23;3.03;;;1.77;;
77076;SDS011;66003;52.286;104.306;2023-03-11T08:18:50;1.80;;;1.65;;
77076;SDS011;66003;52.286;104.306;2023-03-11T08:21:18;2.10;;;1.90;;
77076;SDS011;66003;52.286;104.306;2023-03-11T08:23:47;2.38;;;2.28;;
77076;SDS011;66003;52.286;104.306;2023-03-11T08:26:14;1.90;;;1.75;;
77076;SDS011;66003;52.286;104.306;2023-03-11T08:28:46;1.75;;;0.68;;
77076;SDS011;66003;52.286;104.306;2023-03-11T08:31:20;2.28;;;2.17;;
77076;SDS011;66003;52.286;104.306;2023-03-11T08:33:49;1.60;;;1.55;;
77076;SDS011;66003;52.286;104.306;2023-03-11T08:36:17;1.80;;;1.70;;
77076;SDS011;66003;52.286;104.306;2023-03-11T08:38:43;2.97;;;2.72;;
77076;SDS011;66003;52.286;104.306;2023-03-11T08:41:09;2.08;;;1.98;;
77076;SDS011;66003;52.286;104.306;2023-03-11T08:43:36;1.73;;;1.63;;
77076;SDS011;66003;52.286;104.306;2023-03-11T08:46:04;2.33;;;2.13;;
77076;SDS011;66003;52.286;104.306;2023-03-11T08:48:31;1.92;;;1.83;;
77076;SDS011;66003;52.286;104.306;2023-03-11T08:50:58;1.48;;;1.38;;
77076;SDS011;66003;52.286;104.306;2023-03-11T08:53:24;1.67;;;1.52;;
77076;SDS011;66003;52.286;104.306;2023-03-11T08:55:51;1.67;;;1.67;;
77076;SDS011;66003;52.286;104.306;2023-03-11T08:58:18;2.38;;;2.22;;
77076;SDS011;66003;52.286;104.306;2023-03-11T09:00:47;1.98;;;1.88;;
77076;SDS011;66003;52.286;104.306;2023-03-11T09:03:14;2.33;;;2.22;;
77076;SDS011;66003;52.286;104.306;2023-03-11T09:05:40;2.97;;;2.70;;
77076;SDS011;66003;52.286;104.306;2023-03-11T09:08:06;1.90;;;1.75;;
77076;SDS011;66003;52.286;104.306;2023-03-11T09:10:32;1.70;;;1.60;;
77076;SDS011;66003;52.286;104.306;2023-03-11T09:12:58;1.60;;;1.52;;
77076;SDS011;66003;52.286;104.306;2023-03-11T09:15:24;2.25;;;2.05;;
77076;SDS011;66003;52.286;104.306;2023-03-11T09:17:50;2.55;;;2.33;;
77076;SDS011;66003;52.286;104.306;2023-03-11T09:20:17;2.00;;;1.90;;
77076;SDS011;66003;52.286;104.306;2023-03-11T09:22:43;1.90;;;1.77;;
77076;SDS011;66003;52.286;104.306;2023-03-11T09:25:10;2.47;;;2.28;;
77076;SDS011;66003;52.286;104.306;2023-03-11T09:27:38;3.30;;;1.15;;
77076;SDS011;66003;52.286;104.306;2023-03-11T09:32:31;1.30;;;1.27;;
77076;SDS011;66003;52.286;104.306;2023-03-11T09:34:57;5.90;;;1.70;;
77076;SDS011;66003;52.286;104.306;2023-03-11T09:37:24;1.95;;;1.85;;
77076;SDS011;66003;52.286;104.306;2023-03-11T09:39:51;0.82;;;0.82;;
77076;SDS011;66003;52.286;104.306;2023-03-11T09:45:20;2.78;;;2.42;;
77076;SDS011;66003;52.286;104.306;2023-03-11T09:48:02;2.67;;;2.05;;
77076;SDS011;66003;52.286;104.306;2023-03-11T09:50:57;1.88;;;1.58;;
77076;SDS011;66003;52.286;104.306;2023-03-11T09:53:28;1.95;;;0.30;;
77076;SDS011;66003;52.286;104.306;2023-03-11T09:55:59;2.60;;;1.58;;
77076;SDS011;66003;52.286;104.306;2023-03-11T10:01:00;1.75;;;1.65;;
77076;SDS011;66003;52.286;104.306;2023-03-11T10:03:34;2.10;;;2.00;;
77076;SDS011;66003;52.286;104.306;2023-03-11T10:06:11;5.10;;;1.77;;
77076;SDS011;66003;52.286;104.306;2023-03-11T10:09:24;2.10;;;2.00;;
77076;SDS011;66003;52.286;104.306;2023-03-11T10:11:54;1.98;;;1.85;;
77076;SDS011;66003;52.286;104.306;2023-03-11T10:14:36;1.48;;;1.48;;
77076;SDS011;66003;52.286;104.306;2023-03-11T10:27:53;2.92;;;1.67;;
77076;SDS011;66003;52.286;104.306;2023-03-11T10:30:26;2.63;;;1.52;;
77076;SDS011;66003;52.286;104.306;2023-03-11T10:35:47;1.80;;;1.70;;
77076;SDS011;66003;52.286;104.306;2023-03-11T10:38:26;3.47;;;2.20;;
77076;SDS011;66003;52.286;104.306;2023-03-11T10:41:02;1.95;;;1.83;;
77076;SDS011;66003;52.286;104.306;2023-03-11T10:43:34;2.08;;;1.98;;
77076;SDS011;66003;52.286;104.306;2023-03-11T10:46:05;1.52;;;1.45;;
77076;SDS011;66003;52.286;104.306;2023-03-11T10:48:45;1.88;;;1.75;;
77076;SDS011;66003;52.286;104.306;2023-03-11T10:51:18;0.73;;;0.40;;
77076;SDS011;66003;52.286;104.306;2023-03-11T10:56:48;2.65;;;2.45;;
77076;SDS011;66003;52.286;104.306;2023-03-11T11:02:48;2.60;;;2.40;;
77076;SDS011;66003;52.286;104.306;2023-03-11T11:07:42;0.98;;;0.98;;
77076;SDS011;66003;52.286;104.306;2023-03-11T11:10:20;4.75;;;2.03;;
77076;SDS011;66003;52.286;104.306;2023-03-11T11:12:51;2.08;;;1.98;;
77076;SDS011;66003;52.286;104.306;2023-03-11T11:15:25;3.33;;;2.45;;
77076;SDS011;66003;52.286;104.306;2023-03-11T11:17:58;2.53;;;0.63;;
77076;SDS011;66003;52.286;104.306;2023-03-11T11:20:31;1.58;;;1.48;;
77076;SDS011;66003;52.286;104.306;2023-03-11T11:23:00;1.67;;;1.67;;
77076;SDS011;66003;52.286;104.306;2023-03-11T11:25:29;2.53;;;1.98;;
77076;SDS011;66003;52.286;104.306;2023-03-11T11:28:15;2.33;;;1.90;;
77076;SDS011;66003;52.286;104.306;2023-03-11T11:30:57;1.90;;;1.85;;
77076;SDS011;66003;52.286;104.306;2023-03-11T11:33:33;0.10;;;0.03;;
77076;SDS011;66003;52.286;104.306;2023-03-11T11:36:05;2.60;;;2.38;;
77076;SDS011;66003;52.286;104.306;2023-03-11T11:41:05;1.67;;;1.65;;
77076;SDS011;66003;52.286;104.306;2023-03-11T11:43:37;7.38;;;2.55;;
77076;SDS011;66003;52.286;104.306;2023-03-11T11:46:21;3.67;;;3.15;;
77076;SDS011;66003;52.286;104.306;2023-03-11T11:49:06;2.08;;;1.98;;
77076;SDS011;66003;52.286;104.306;2023-03-11T11:51:44;3.33;;;2.25;;
77076;SDS011;66003;52.286;104.306;2023-03-11T11:56:54;2.13;;;2.00;;
77076;SDS011;66003;52.286;104.306;2023-03-11T11:59:21;1.08;;;1.00;;
77076;SDS011;66003;52.286;104.306;2023-03-11T12:12:20;2.28;;;2.03;;
77076;SDS011;66003;52.286;104.306;2023-03-11T12:15:00;2.28;;;1.80;;
77076;SDS011;66003;52.286;104.306;2023-03-11T12:18:01;0.45;;;0.13;;
77076;SDS011;66003;52.286;104.306;2023-03-11T12:20:38;2.20;;;1.77;;
77076;SDS011;66003;52.286;104.306;2023-03-11T12:23:17;3.00;;;2.75;;
77076;SDS011;66003;52.286;104.306;2023-03-11T12:28:49;2.90;;;2.60;;
77076;SDS011;66003;52.286;104.306;2023-03-11T12:31:25;6.50;;;3.05;;
77076;SDS011;66003;52.286;104.306;2023-03-11T12:36:30;2.03;;;1.95;;
77076;SDS011;66003;52.286;104.306;2023-03-11T12:39:15;3.13;;;2.92;;
77076;SDS011;66003;52.286;104.306;2023-03-11T12:44:36;1.52;;;1.50;;
77076;SDS011;66003;52.286;104.306;2023-03-11T12:49:37;2.70;;;2.13;;
77076;SDS011;66003;52.286;104.306;2023-03-11T12:54:34;3.72;;;2.38;;
77076;SDS011;66003;52.286;104.306;2023-03-11T13:05:54;1.48;;;1.48;;
77076;SDS011;66003;52.286;104.306;2023-03-11T13:10:52;1.08;;;0.55;;
77076;SDS011;66003;52.286;104.306;2023-03-11T13:15:48;4.22;;;3.35;;
77076;SDS011;66003;52.286;104.306;2023-03-11T13:18:21;1.90;;;1.75;;
77076;SDS011;66003;52.286;104.306;2023-03-11T13:20:51;1.77;;;1.73;;
77076;SDS011;66003;52.286;104.306;2023-03-11T13:28:50;0.40;;;0.38;;
77076;SDS011;66003;52.286;104.306;2023-03-11T13:42:48;1.83;;;1.83;;
77076;SDS011;66003;52.286;104.306;2023-03-11T13:45:37;2.78;;;2.67;;
77076;SDS011;66003;52.286;104.306;2023-03-11T13:48:13;2.47;;;2.35;;
77076;SDS011;66003;52.286;104.306;2023-03-11T13:50:47;2.53;;;1.27;;
77076;SDS011;66003;52.286;104.306;2023-03-11T13:53:27;1.42;;;1.33;;
77076;SDS011;66003;52.286;104.306;2023-03-11T13:55:59;2.17;;;1.95;;
77076;SDS011;66003;52.286;104.306;2023-03-11T13:58:26;1.25;;;1.10;;
77076;SDS011;66003;52.286;104.306;2023-03-11T14:00:54;2.10;;;1.85;;
77076;SDS011;66003;52.286;104.306;2023-03-11T14:03:23;2.17;;;2.08;;
77076;SDS011;66003;52.286;104.306;2023-03-11T14:08:29;1.40;;;1.40;;
77076;SDS011;66003;52.286;104.306;2023-03-11T14:10:58;1.35;;;1.15;;
77076;SDS011;66003;52.286;104.306;2023-03-11T14:13:28;2.58;;;2.47;;
77076;SDS011;66003;52.286;104.306;2023-03-11T14:16:06;2.22;;;2.13;;
77076;SDS011;66003;52.286;104.306;2023-03-11T14:21:15;2.83;;;2.10;;
77076;SDS011;66003;52.286;104.306;2023-03-11T14:23:45;5.78;;;2.72;;
77076;SDS011;66003;52.286;104.306;2023-03-11T14:26:14;2.85;;;2.45;;
77076;SDS011;66003;52.286;104.306;2023-03-11T14:28:48;1.83;;;1.80;;
77076;SDS011;66003;52.286;104.306;2023-03-11T14:31:28;1.42;;;1.42;;
77076;SDS011;66003;52.286;104.306;2023-03-11T14:34:41;2.45;;;2.03;;
77076;SDS011;66003;52.286;104.306;2023-03-11T14:36:53;1.60;;;1.42;;
77076;SDS011;66003;52.286;104.306;2023-03-11T14:39:22;2.92;;;2.58;;
77076;SDS011;66003;52.286;104.306;2023-03-11T14:44:46;2.35;;;2.25;;
77076;SDS011;66003;52.286;104.306;2023-03-11T14:47:38;1.67;;;1.67;;
77076;SDS011;66003;52.286;104.306;2023-03-11T14:50:15;2.25;;;2.15;;
77076;SDS011;66003;52.286;104.306;2023-03-11T14:55:31;1.00;;;0.70;;
77076;SDS011;66003;52.286;104.306;2023-03-11T15:00:52;2.33;;;2.10;;
77076;SDS011;66003;52.286;104.306;2023-03-11T15:03:29;1.67;;;1.58;;
77076;SDS011;66003;52.286;104.306;2023-03-11T15:08:35;2.20;;;2.10;;
77076;SDS011;66003;52.286;104.306;2023-03-11T15:11:16;1.50;;;1.50;;
77076;SDS011;66003;52.286;104.306;2023-03-11T15:13:50;2.33;;;2.33;;
77076;SDS011;66003;52.286;104.306;2023-03-11T15:18:46;1.85;;;1.85;;
77076;SDS011;66003;52.286;104.306;2023-03-11T15:21:14;1.55;;;1.55;;
77076;SDS011;66003;52.286;104.306;2023-03-11T15:23:52;1.40;;;1.40;;
77076;SDS011;66003;52.286;104.306;2023-03-11T15:26:28;1.20;;;1.20;;
77076;SDS011;66003;52.286;104.306;2023-03-11T15:28:57;1.35;;;0.55;;
77076;SDS011;66003;52.286;104.306;2023-03-11T15:31:30;3.22;;;3.08;;
77076;SDS011;66003;52.286;104.306;2023-03-11T15:36:43;2.05;;;0.35;;
77076;SDS011;66003;52.286;104.306;2023-03-11T15:47:34;1.77;;;1.75;;
77076;SDS011;66003;52.286;104.306;2023-03-11T15:52:49;2.78;;;2.58;;
77076;SDS011;66003;52.286;104.306;2023-03-11T15:55:16;2.17;;;2.08;;
77076;SDS011;66003;52.286;104.306;2023-03-11T15:57:44;1.95;;;1.85;;
77076;SDS011;66003;52.286;104.306;2023-03-11T16:00:19;1.60;;;1.60;;
77076;SDS011;66003;52.286;104.306;2023-03-11T16:02:48;2.47;;;2.38;;
77076;SDS011;66003;52.286;104.306;2023-03-11T16:05:16;1.17;;;0.52;;
77076;SDS011;66003;52.286;104.306;2023-03-11T16:07:44;2.22;;;2.13;;
77076;SDS011;66003;52.286;104.306;2023-03-11T16:10:12;2.22;;;2.13;;
77076;SDS011;66003;52.286;104.306;2023-03-11T16:12:41;2.65;;;2.08;;
77076;SDS011;66003;52.286;104.306;2023-03-11T16:15:21;1.67;;;0.73;;
77076;SDS011;66003;52.286;104.306;2023-03-11T16:17:56;1.63;;;0.57;;
77076;SDS011;66003;52.286;104.306;2023-03-11T16:20:27;6.15;;;2.05;;
77076;SDS011;66003;52.286;104.306;2023-03-11T16:22:57;1.83;;;1.83;;
77076;SDS011;66003;52.286;104.306;2023-03-11T16:28:02;2.70;;;2.60;;
77076;SDS011;66003;52.286;104.306;2023-03-11T16:30:29;3.05;;;2.10;;
77076;SDS011;66003;52.286;104.306;2023-03-11T16:32:56;2.67;;;2.58;;
77076;SDS011;66003;52.286;104.306;2023-03-11T16:35:23;1.92;;;1.92;;
77076;SDS011;66003;52.286;104.306;2023-03-11T16:37:50;1.25;;;0.90;;
77076;SDS011;66003;52.286;104.306;2023-03-11T16:40:17;1.70;;;1.20;;
77076;SDS011;66003;52.286;104.306;2023-03-11T16:42:47;1.38;;;1.38;;
77076;SDS011;66003;52.286;104.306;2023-03-11T16:45:14;2.28;;;2.08;;